createdAt,value
2018-05-03T00:00:13.134Z,3.80
2018-05-03T00:01:11.884Z,3.20
2018-05-03T00:02:11.878Z,3.10
2018-05-03T00:03:11.736Z,3.70
2018-05-03T00:04:11.693Z,3.50
2018-05-03T00:05:11.601Z,3.50
2018-05-03T00:06:11.611Z,3.40
2018-05-03T00:07:11.401Z,3.50
2018-05-03T00:08:11.407Z,3.80
2018-05-03T00:09:11.238Z,3.40
2018-05-03T00:10:11.208Z,3.30
2018-05-03T00:11:11.109Z,3.50
2018-05-03T00:13:53.046Z,3.30
2018-05-03T00:14:53.062Z,3.60
2018-05-03T00:15:52.899Z,3.80
2018-05-03T00:16:52.840Z,3.70
2018-05-03T00:17:52.728Z,3.50
2018-05-03T00:18:52.743Z,4.00
2018-05-03T00:19:52.583Z,3.40
2018-05-03T00:20:52.582Z,3.40
2018-05-03T00:21:52.402Z,3.60
2018-05-03T00:22:52.358Z,3.50
2018-05-03T00:23:52.247Z,3.50
2018-05-03T00:24:52.268Z,3.60
2018-05-03T00:25:52.125Z,3.60
2018-05-03T00:26:52.078Z,3.90
2018-05-03T00:27:51.927Z,3.70
2018-05-03T00:28:51.886Z,3.70
2018-05-03T00:29:51.780Z,3.80
2018-05-03T00:30:51.830Z,3.90
2018-05-03T00:31:51.611Z,3.70
2018-05-03T00:32:51.630Z,4.00
2018-05-03T00:33:51.458Z,3.60
2018-05-03T00:34:51.422Z,3.70
2018-05-03T00:35:51.325Z,4.30
2018-05-03T00:36:51.329Z,4.00
2018-05-03T00:37:51.142Z,4.10
2018-05-03T00:38:51.127Z,3.70
2018-05-03T00:39:50.977Z,3.70
2018-05-03T00:40:50.985Z,4.10
2018-05-03T00:41:50.955Z,3.80
2018-05-03T00:42:50.863Z,3.60
2018-05-03T00:43:50.664Z,3.30
2018-05-03T00:44:50.660Z,3.60
2018-05-03T00:45:50.506Z,3.10
2018-05-03T00:46:50.502Z,3.20
2018-05-03T00:47:50.354Z,3.40
2018-05-03T00:48:50.369Z,3.30
2018-05-03T00:49:50.195Z,3.30
2018-05-03T00:50:50.191Z,2.90
2018-05-03T00:51:50.054Z,2.70
2018-05-03T00:52:49.997Z,2.70
2018-05-03T00:53:49.871Z,2.60
2018-05-03T00:54:49.908Z,2.60
2018-05-03T00:55:49.723Z,2.70
2018-05-03T00:56:49.747Z,2.50
2018-05-03T00:57:49.579Z,2.40
2018-05-03T00:58:49.520Z,2.40
2018-05-03T00:59:49.448Z,2.30
2018-05-03T01:00:49.430Z,2.20
2018-05-03T01:01:49.239Z,2.30
2018-05-03T01:02:49.277Z,2.40
2018-05-03T01:03:49.091Z,2.50
2018-05-03T01:04:49.050Z,2.30
2018-05-03T01:05:48.925Z,2.50
2018-05-03T01:06:48.963Z,2.40
2018-05-03T01:07:48.797Z,2.40
2018-05-03T01:08:48.772Z,2.30
2018-05-03T01:09:48.606Z,2.30
2018-05-03T01:10:48.580Z,2.40
2018-05-03T01:11:48.442Z,2.60
2018-05-03T01:12:48.417Z,2.50
2018-05-03T01:13:48.300Z,2.50
2018-05-03T01:16:30.562Z,2.40
2018-05-03T01:17:30.536Z,2.40
2018-05-03T01:18:30.417Z,2.50
2018-05-03T01:19:30.418Z,2.40
2018-05-03T01:20:30.239Z,2.70
2018-05-03T01:21:30.220Z,2.60
2018-05-03T01:22:30.075Z,2.60
2018-05-03T01:23:30.094Z,2.80
2018-05-03T01:24:29.920Z,2.80
2018-05-03T01:25:29.931Z,2.80
2018-05-03T01:26:29.752Z,3.20
2018-05-03T01:27:29.738Z,2.90
2018-05-03T01:28:29.620Z,2.90
2018-05-03T01:29:29.552Z,2.90
2018-05-03T01:30:29.443Z,3.40
2018-05-03T01:31:29.466Z,3.60
2018-05-03T01:32:29.286Z,3.50
2018-05-03T01:33:29.278Z,3.10
2018-05-03T01:34:29.150Z,3.10
2018-05-03T01:35:29.095Z,2.90
2018-05-03T01:36:28.972Z,3.40
2018-05-03T01:37:29.000Z,3.00
2018-05-03T01:38:28.843Z,3.00
2018-05-03T01:39:28.795Z,3.30
2018-05-03T01:40:28.647Z,3.30
2018-05-03T01:43:10.560Z,4.50
2018-05-03T01:44:11.555Z,4.10
2018-05-03T01:45:10.410Z,4.40
2018-05-03T01:46:10.420Z,4.10
2018-05-03T01:47:10.240Z,4.20
2018-05-03T01:48:10.223Z,4.70
2018-05-03T01:49:10.095Z,4.70
2018-05-03T01:50:10.032Z,4.50
2018-05-03T01:51:09.934Z,4.80
2018-05-03T01:52:10.046Z,4.50
2018-05-03T01:53:09.773Z,5.30
2018-05-03T01:54:10.822Z,5.40
2018-05-03T01:55:09.633Z,6.00
2018-05-03T01:57:51.553Z,6.30
2018-05-03T02:00:33.670Z,6.60
2018-05-03T02:01:33.556Z,6.10
2018-05-03T02:02:33.410Z,6.10
2018-05-03T02:03:33.360Z,6.40
2018-05-03T02:04:33.241Z,7.00
2018-05-03T02:05:33.310Z,6.90
2018-05-03T02:06:33.079Z,7.40
2018-05-03T02:07:33.088Z,7.50
2018-05-03T02:08:32.926Z,7.80
2018-05-03T02:09:32.887Z,7.60
2018-05-03T02:10:32.791Z,8.30
2018-05-03T02:11:32.842Z,8.20
2018-05-03T02:12:32.606Z,8.70
2018-05-03T02:15:14.559Z,8.80
2018-05-03T02:16:14.543Z,8.80
2018-05-03T02:17:14.411Z,9.00
2018-05-03T02:18:14.420Z,9.00
2018-05-03T02:19:14.246Z,8.80
2018-05-03T02:20:14.222Z,9.30
2018-05-03T02:21:14.122Z,9.90
2018-05-03T02:22:14.138Z,9.70
2018-05-03T02:23:13.925Z,9.10
2018-05-03T02:24:13.938Z,10.20
2018-05-03T02:25:13.781Z,9.80
2018-05-03T02:26:13.764Z,9.40
2018-05-03T02:27:13.645Z,10.00
2018-05-03T02:28:13.556Z,10.10
2018-05-03T02:29:13.449Z,10.70
2018-05-03T02:30:13.481Z,10.70
2018-05-03T02:31:13.290Z,10.90
2018-05-03T02:32:13.312Z,10.40
2018-05-03T02:33:13.153Z,10.30
2018-05-03T02:35:55.068Z,11.30
2018-05-03T02:36:56.039Z,10.90
2018-05-03T02:37:54.908Z,10.90
2018-05-03T02:40:37.073Z,10.30
2018-05-03T02:41:37.098Z,10.70
2018-05-03T02:42:37.071Z,10.70
2018-05-03T02:43:36.902Z,10.30
2018-05-03T02:44:36.748Z,10.70
2018-05-03T02:45:36.709Z,11.00
2018-05-03T02:46:36.595Z,10.90
2018-05-03T02:47:37.583Z,11.20
2018-05-03T02:48:36.439Z,11.00
2018-05-03T02:49:36.359Z,11.40
2018-05-03T02:50:36.296Z,11.00
2018-05-03T02:51:36.249Z,11.70
2018-05-03T02:52:36.139Z,11.40
2018-05-03T02:53:36.166Z,10.60
2018-05-03T02:54:35.958Z,11.20
2018-05-03T02:57:18.082Z,11.50
2018-05-03T02:58:19.143Z,11.60
2018-05-03T02:59:17.935Z,11.80
2018-05-03T03:00:17.892Z,11.70
2018-05-03T03:01:17.762Z,11.20
2018-05-03T03:02:17.792Z,11.50
2018-05-03T03:03:17.621Z,11.30
2018-05-03T03:04:17.584Z,11.70
2018-05-03T03:05:17.444Z,12.40
2018-05-03T03:07:59.587Z,11.00
2018-05-03T03:08:59.633Z,11.60
2018-05-03T03:09:59.418Z,11.90
2018-05-03T03:10:59.397Z,10.70
2018-05-03T03:11:59.251Z,11.00
2018-05-03T03:12:59.207Z,10.60
2018-05-03T03:13:59.110Z,11.00
2018-05-03T03:14:59.122Z,10.60
2018-05-03T03:15:58.943Z,10.70
2018-05-03T03:18:41.099Z,10.30
2018-05-03T03:19:41.057Z,9.80
2018-05-03T03:20:40.986Z,9.40
2018-05-03T03:21:40.972Z,9.20
2018-05-03T03:22:40.772Z,8.30
2018-05-03T03:23:40.754Z,8.40
2018-05-03T03:24:40.623Z,7.90
2018-05-03T03:25:40.566Z,8.30
2018-05-03T03:26:40.443Z,8.40
2018-05-03T03:27:40.496Z,8.40
2018-05-03T03:28:40.283Z,8.60
2018-05-03T03:29:40.313Z,8.00
2018-05-03T03:30:40.127Z,7.80
2018-05-03T03:33:22.078Z,6.90
2018-05-03T03:34:22.081Z,7.00
2018-05-03T03:35:22.088Z,7.20
2018-05-03T03:38:04.079Z,6.50
2018-05-03T03:39:04.099Z,6.60
2018-05-03T03:40:03.940Z,6.10
2018-05-03T03:41:03.931Z,6.10
2018-05-03T03:42:03.769Z,6.40
2018-05-03T03:44:45.590Z,6.00
2018-05-03T03:45:46.563Z,6.00
2018-05-03T03:46:45.427Z,6.50
2018-05-03T03:47:45.421Z,5.80
2018-05-03T03:48:45.261Z,6.00
2018-05-03T03:49:45.218Z,6.10
2018-05-03T03:50:45.123Z,5.70
2018-05-03T03:51:45.139Z,5.90
2018-05-03T03:52:44.949Z,5.60
2018-05-03T03:53:44.945Z,5.90
2018-05-03T03:54:44.786Z,5.60
2018-05-03T03:55:45.813Z,5.40
2018-05-03T03:56:44.735Z,5.30
2018-05-03T03:57:44.664Z,5.80
2018-05-03T03:58:44.466Z,5.00
2018-05-03T03:59:44.477Z,5.60
2018-05-03T04:00:44.313Z,5.10
2018-05-03T04:01:44.310Z,4.80
2018-05-03T04:02:44.149Z,5.30
2018-05-03T04:05:26.090Z,5.30
2018-05-03T04:06:27.151Z,4.60
2018-05-03T04:07:25.959Z,4.90
2018-05-03T04:10:08.094Z,4.90
2018-05-03T04:12:50.129Z,5.00
2018-05-03T04:15:32.090Z,5.00
2018-05-03T04:16:32.093Z,4.80
2018-05-03T04:17:31.945Z,4.60
2018-05-03T04:18:31.907Z,5.00
2018-05-03T04:19:31.764Z,4.70
2018-05-03T04:20:31.810Z,4.90
2018-05-03T04:21:31.605Z,5.20
2018-05-03T04:22:32.775Z,4.50
2018-05-03T04:23:31.455Z,4.80
2018-05-03T04:26:13.595Z,4.80
2018-05-03T04:27:13.566Z,5.20
2018-05-03T04:28:13.454Z,5.20
2018-05-03T04:29:13.438Z,4.90
2018-05-03T04:30:13.262Z,5.20
2018-05-03T04:31:13.244Z,4.80
2018-05-03T04:32:13.125Z,4.80
2018-05-03T04:33:14.074Z,4.80
2018-05-03T04:34:12.973Z,4.80
2018-05-03T04:36:55.110Z,4.80
2018-05-03T04:37:55.073Z,4.90
2018-05-03T04:38:54.957Z,5.30
2018-05-03T04:39:54.982Z,4.70
2018-05-03T04:40:54.778Z,5.20
2018-05-03T04:41:54.697Z,4.80
2018-05-03T04:42:54.607Z,4.80
2018-05-03T04:43:54.562Z,5.20
2018-05-03T04:44:54.447Z,4.50
2018-05-03T04:45:54.375Z,4.60
2018-05-03T04:46:54.412Z,5.20
2018-05-03T04:47:54.314Z,5.10
2018-05-03T04:48:54.159Z,5.00
2018-05-03T04:51:36.107Z,4.90
2018-05-03T04:52:36.128Z,4.90
2018-05-03T04:53:35.947Z,5.10
2018-05-03T04:54:36.988Z,5.20
2018-05-03T04:55:35.790Z,5.20
2018-05-03T04:56:35.807Z,4.90
2018-05-03T04:57:35.628Z,4.90
2018-05-03T04:58:35.643Z,5.20
2018-05-03T04:59:35.500Z,5.00
2018-05-03T05:00:35.447Z,5.20
2018-05-03T05:01:35.320Z,5.10
2018-05-03T05:04:17.631Z,5.40
2018-05-03T05:05:17.596Z,5.70
2018-05-03T05:06:17.456Z,5.30
2018-05-03T05:07:17.488Z,5.50
2018-05-03T05:08:17.335Z,5.60
2018-05-03T05:09:17.281Z,5.20
2018-05-03T05:10:17.146Z,5.50
2018-05-03T05:11:17.098Z,5.40
2018-05-03T05:12:16.967Z,5.10
2018-05-03T05:13:17.007Z,5.70
2018-05-03T05:14:16.804Z,5.70
2018-05-03T05:15:16.851Z,6.10
2018-05-03T05:16:16.674Z,5.80
2018-05-03T05:17:16.641Z,5.50
2018-05-03T05:18:16.485Z,5.80
2018-05-03T05:20:58.690Z,5.90
2018-05-03T05:21:58.810Z,5.70
2018-05-03T05:22:58.478Z,5.50
2018-05-03T05:23:58.434Z,5.70
2018-05-03T05:24:58.289Z,5.70
2018-05-03T05:25:58.297Z,5.80
2018-05-03T05:26:58.133Z,6.10
2018-05-03T05:27:58.150Z,6.20
2018-05-03T05:28:57.968Z,6.10
2018-05-03T05:29:57.976Z,6.10
2018-05-03T05:30:57.817Z,6.20
2018-05-03T05:31:57.774Z,6.30
2018-05-03T05:32:57.652Z,6.20
2018-05-03T05:33:57.687Z,5.80
2018-05-03T05:34:57.483Z,5.90
2018-05-03T05:35:57.542Z,5.90
2018-05-03T05:36:57.361Z,5.90
2018-05-03T05:37:57.303Z,6.00
2018-05-03T05:38:57.258Z,6.10
2018-05-03T05:39:57.221Z,6.10
2018-05-03T05:40:57.023Z,5.40
2018-05-03T05:41:57.036Z,6.10
2018-05-03T05:42:56.852Z,6.20
2018-05-03T05:43:56.777Z,6.40
2018-05-03T05:44:56.700Z,6.00
2018-05-03T05:45:57.703Z,6.80
2018-05-03T05:46:56.523Z,6.00
2018-05-03T05:47:57.509Z,6.50
2018-05-03T05:48:56.368Z,6.60
2018-05-03T05:51:38.620Z,6.50
2018-05-03T05:52:38.609Z,6.50
2018-05-03T05:53:38.470Z,6.20
2018-05-03T05:56:20.612Z,7.00
2018-05-03T05:57:20.633Z,7.00
2018-05-03T05:58:20.450Z,6.80
2018-05-03T05:59:20.485Z,6.90
2018-05-03T06:00:20.286Z,6.80
2018-05-03T06:03:02.145Z,7.20
2018-05-03T06:04:02.089Z,7.50
2018-05-03T06:05:01.960Z,7.50
2018-05-03T06:06:01.996Z,7.10
2018-05-03T06:07:01.810Z,7.40
2018-05-03T06:08:01.839Z,7.50
2018-05-03T06:09:01.648Z,6.70
2018-05-03T06:11:43.621Z,7.00
2018-05-03T06:12:43.651Z,6.70
2018-05-03T06:13:43.452Z,7.50
2018-05-03T06:16:25.665Z,6.90
2018-05-03T06:17:25.599Z,7.60
2018-05-03T06:18:25.475Z,7.10
2018-05-03T06:19:25.429Z,7.30
2018-05-03T06:20:25.303Z,8.10
2018-05-03T06:21:25.340Z,7.90
2018-05-03T06:22:25.142Z,8.50
2018-05-03T06:23:25.193Z,8.20
2018-05-03T06:24:25.018Z,7.20
2018-05-03T06:25:24.955Z,7.00
2018-05-03T06:26:24.829Z,7.60
2018-05-03T06:27:24.864Z,8.10
2018-05-03T06:28:24.670Z,7.10
2018-05-03T06:29:24.713Z,7.70
2018-05-03T06:30:24.514Z,8.40
2018-05-03T06:31:24.500Z,8.20
2018-05-03T06:32:24.389Z,8.20
2018-05-03T06:33:24.405Z,9.10
2018-05-03T06:34:24.893Z,9.60
2018-05-03T06:35:24.216Z,9.30
2018-05-03T06:36:24.043Z,10.00
2018-05-03T06:39:06.154Z,9.20
2018-05-03T06:40:06.104Z,9.40
2018-05-03T06:41:06.006Z,10.30
2018-05-03T06:42:05.929Z,11.10
2018-05-03T06:43:05.820Z,11.50
2018-05-03T06:44:05.841Z,11.10
2018-05-03T06:45:05.667Z,11.60
2018-05-03T06:46:06.703Z,11.80
2018-05-03T06:47:05.507Z,11.50
2018-05-03T06:48:05.508Z,12.40
2018-05-03T06:49:05.367Z,11.40
2018-05-03T06:51:47.661Z,11.00
2018-05-03T06:52:47.662Z,11.60
2018-05-03T06:53:47.467Z,11.60
2018-05-03T06:54:47.485Z,10.70
2018-05-03T06:55:47.365Z,11.10
2018-05-03T06:56:47.272Z,11.20
2018-05-03T06:57:47.164Z,11.20
2018-05-03T06:58:47.202Z,11.40
2018-05-03T06:59:47.016Z,12.10
2018-05-03T07:00:47.042Z,11.40
2018-05-03T07:01:46.855Z,12.00
2018-05-03T07:04:29.232Z,11.40
2018-05-03T07:05:29.151Z,11.60
2018-05-03T07:06:28.982Z,10.40
2018-05-03T07:07:29.037Z,9.40
2018-05-03T07:08:28.832Z,8.30
2018-05-03T07:11:11.175Z,6.90
2018-05-03T07:12:11.204Z,7.10
2018-05-03T07:13:11.015Z,7.60
2018-05-03T07:14:10.995Z,7.80
2018-05-03T07:15:10.869Z,6.80
2018-05-03T07:16:10.897Z,6.70
2018-05-03T07:17:10.683Z,7.70
2018-05-03T07:18:10.610Z,6.80
2018-05-03T07:19:10.536Z,7.50
2018-05-03T07:20:10.458Z,6.90
2018-05-03T07:21:10.428Z,7.10
2018-05-03T07:22:10.300Z,7.90
2018-05-03T07:23:10.223Z,7.40
2018-05-03T07:24:10.175Z,7.10
2018-05-03T07:25:10.061Z,7.30
2018-05-03T07:26:10.027Z,6.40
2018-05-03T07:27:09.907Z,5.80
2018-05-03T07:28:09.844Z,5.90
2018-05-03T07:29:09.761Z,6.30
2018-05-03T07:30:09.693Z,5.70
2018-05-03T07:31:09.625Z,5.50
2018-05-03T07:33:51.637Z,5.50
2018-05-03T07:34:51.639Z,5.50
2018-05-03T07:35:51.493Z,5.40
2018-05-03T07:36:52.446Z,4.90
2018-05-03T07:37:51.341Z,4.90
2018-05-03T07:38:51.301Z,4.60
2018-05-03T07:39:51.189Z,4.80
2018-05-03T07:40:51.173Z,5.20
2018-05-03T07:41:51.051Z,4.40
2018-05-03T07:42:51.017Z,4.80
2018-05-03T07:43:50.901Z,5.00
2018-05-03T07:46:33.182Z,4.90
2018-05-03T07:47:33.090Z,5.00
2018-05-03T07:48:33.039Z,4.50
2018-05-03T07:49:32.952Z,4.40
2018-05-03T07:50:32.940Z,4.60
2018-05-03T07:51:32.898Z,4.30
2018-05-03T07:52:32.722Z,4.20
2018-05-03T07:53:32.629Z,4.50
2018-05-03T07:54:32.549Z,4.70
2018-05-03T07:57:14.679Z,4.80
2018-05-03T07:58:14.612Z,4.00
2018-05-03T07:59:14.511Z,4.50
2018-05-03T08:00:14.453Z,4.50
2018-05-03T08:01:14.405Z,4.80
2018-05-03T08:02:14.318Z,4.30
2018-05-03T08:03:14.237Z,4.50
2018-05-03T08:04:14.157Z,4.90
2018-05-03T08:05:14.070Z,4.80
2018-05-03T08:06:14.060Z,4.80
2018-05-03T08:07:13.950Z,4.80
2018-05-03T08:08:14.874Z,5.30
2018-05-03T08:09:13.773Z,4.90
2018-05-03T08:10:13.694Z,4.80
2018-05-03T08:11:13.633Z,5.30
2018-05-03T08:12:13.546Z,5.50
2018-05-03T08:13:13.492Z,5.10
2018-05-03T08:14:13.397Z,5.70
2018-05-03T08:15:13.364Z,5.80
2018-05-03T08:16:13.261Z,5.60
2018-05-03T08:17:13.213Z,5.10
2018-05-03T08:19:55.197Z,5.00
2018-05-03T08:20:55.097Z,5.50
2018-05-03T08:21:55.026Z,5.60
2018-05-03T08:22:54.946Z,5.60
2018-05-03T08:23:54.884Z,5.80
2018-05-03T08:26:37.192Z,5.30
2018-05-03T08:29:19.183Z,4.90
2018-05-03T08:30:19.117Z,5.20
2018-05-03T08:31:19.016Z,5.40
2018-05-03T08:32:19.018Z,4.80
2018-05-03T08:33:18.881Z,5.60
2018-05-03T08:34:19.819Z,5.20
2018-05-03T08:35:18.740Z,5.10
2018-05-03T08:38:00.664Z,5.10
2018-05-03T08:39:00.599Z,6.00
2018-05-03T08:40:00.569Z,6.00
2018-05-03T08:41:00.455Z,5.40
2018-05-03T08:42:00.384Z,5.30
2018-05-03T08:43:00.310Z,6.10
2018-05-03T08:44:00.277Z,5.40
2018-05-03T08:45:00.192Z,5.10
2018-05-03T08:46:00.124Z,5.00
2018-05-03T08:48:42.185Z,5.30
2018-05-03T08:49:43.152Z,5.00
2018-05-03T08:50:42.017Z,5.10
2018-05-03T08:51:41.974Z,5.40
2018-05-03T08:52:41.902Z,5.70
2018-05-03T08:53:41.806Z,6.10
2018-05-03T08:54:41.753Z,4.80
2018-05-03T08:57:23.693Z,4.50
2018-05-03T08:58:23.611Z,4.70
2018-05-03T08:59:23.536Z,4.30
2018-05-03T09:00:24.492Z,3.90
2018-05-03T09:01:23.419Z,4.40
2018-05-03T09:04:05.683Z,4.80
2018-05-03T09:05:05.649Z,4.30
2018-05-03T09:06:05.530Z,4.10
2018-05-03T09:07:05.497Z,4.60
2018-05-03T09:08:05.395Z,4.40
2018-05-03T09:09:05.325Z,4.60
2018-05-03T09:10:05.272Z,4.30
2018-05-03T09:11:05.201Z,4.20
2018-05-03T09:12:05.107Z,3.60
2018-05-03T09:14:47.183Z,4.80
2018-05-03T09:15:47.151Z,5.00
2018-05-03T09:16:47.046Z,5.20
2018-05-03T09:17:46.992Z,5.40
2018-05-03T09:18:46.900Z,5.20
2018-05-03T09:21:29.212Z,4.70
2018-05-03T09:24:11.201Z,3.60
2018-05-03T09:25:11.141Z,3.90
2018-05-03T09:26:11.073Z,4.00
2018-05-03T09:27:10.992Z,4.00
2018-05-03T09:28:10.910Z,4.50
2018-05-03T09:29:10.843Z,3.30
2018-05-03T09:30:10.755Z,3.70
2018-05-03T09:31:10.734Z,4.10
2018-05-03T09:32:10.623Z,3.60
2018-05-03T09:33:10.566Z,3.40
2018-05-03T09:34:10.473Z,3.90
2018-05-03T09:35:10.411Z,3.70
2018-05-03T09:36:10.360Z,3.60
2018-05-03T09:37:10.272Z,4.10
2018-05-03T09:38:10.184Z,4.20
2018-05-03T09:40:52.196Z,4.10
2018-05-03T09:41:52.195Z,3.90
2018-05-03T09:42:52.051Z,4.40
2018-05-03T09:45:34.188Z,4.20
2018-05-03T09:46:34.164Z,4.10
2018-05-03T09:47:34.066Z,3.90
2018-05-03T09:50:16.188Z,5.00
2018-05-03T09:51:16.278Z,4.60
2018-05-03T09:52:16.104Z,5.00
2018-05-03T09:53:16.107Z,4.20
2018-05-03T09:54:15.907Z,4.50
2018-05-03T09:55:15.898Z,4.20
2018-05-03T09:56:15.771Z,3.80
2018-05-03T09:57:15.762Z,4.10
2018-05-03T09:58:15.639Z,4.00
2018-05-03T09:59:15.603Z,4.30
2018-05-03T10:00:15.485Z,4.10
2018-05-03T10:02:57.721Z,4.30
2018-05-03T10:05:39.701Z,4.10
2018-05-03T10:06:40.697Z,4.80
2018-05-03T10:07:39.643Z,4.10
2018-05-03T10:08:39.556Z,3.70
2018-05-03T10:09:39.410Z,3.90
2018-05-03T10:12:21.733Z,3.90
2018-05-03T10:13:21.798Z,4.30
2018-05-03T10:14:21.575Z,4.20
2018-05-03T10:17:03.844Z,4.30
2018-05-03T10:18:03.734Z,4.30
2018-05-03T10:19:03.573Z,3.40
2018-05-03T10:20:03.609Z,4.40
2018-05-03T10:21:03.431Z,3.50
2018-05-03T10:22:03.482Z,4.10
2018-05-03T10:23:03.335Z,3.80
2018-05-03T10:24:03.282Z,3.90
2018-05-03T10:25:03.135Z,3.70
2018-05-03T10:26:03.080Z,3.60
2018-05-03T10:27:02.999Z,3.80
2018-05-03T10:28:02.952Z,3.80
2018-05-03T10:29:03.019Z,3.90
2018-05-03T10:30:02.897Z,3.50
2018-05-03T10:31:02.728Z,3.90
2018-05-03T10:33:44.737Z,3.30
2018-05-03T10:36:26.733Z,3.90
2018-05-03T10:39:08.735Z,3.80
2018-05-03T10:41:50.714Z,3.40
2018-05-03T10:42:50.921Z,3.60
2018-05-03T10:43:50.598Z,3.30
2018-05-03T10:44:50.516Z,3.50
2018-05-03T10:45:50.709Z,3.70
2018-05-03T10:46:50.439Z,3.30
2018-05-03T10:47:50.333Z,3.80
2018-05-03T10:48:50.872Z,3.60
2018-05-03T10:49:50.405Z,3.70
2018-05-03T10:50:50.850Z,3.70
2018-05-03T10:51:50.026Z,3.70
2018-05-03T10:52:49.947Z,3.80
2018-05-03T10:53:49.903Z,3.70
2018-05-03T10:54:52.097Z,3.80
2018-05-03T10:55:49.752Z,4.00
2018-05-03T10:56:49.776Z,3.90
2018-05-03T10:57:49.610Z,3.80
2018-05-03T10:58:52.510Z,3.90
2018-05-03T10:59:49.516Z,3.90
2018-05-03T11:02:31.714Z,4.30
2018-05-03T11:03:31.690Z,3.90
2018-05-03T11:04:31.653Z,3.40
2018-05-03T11:05:31.715Z,3.50
2018-05-03T11:06:31.528Z,3.20
2018-05-03T11:09:13.744Z,3.20
2018-05-03T11:10:13.731Z,3.50
2018-05-03T11:11:13.685Z,3.40
2018-05-03T11:12:13.651Z,2.90
2018-05-03T11:13:13.534Z,3.70
2018-05-03T11:14:13.491Z,3.50
2018-05-03T11:15:13.318Z,3.60
2018-05-03T11:16:13.372Z,3.70
2018-05-03T11:17:13.182Z,3.60
2018-05-03T11:18:13.117Z,3.60
2018-05-03T11:19:13.039Z,4.00
2018-05-03T11:20:13.127Z,3.20
2018-05-03T11:21:12.896Z,3.20
2018-05-03T11:22:12.898Z,3.10
2018-05-03T11:23:12.787Z,3.60
2018-05-03T11:24:12.739Z,3.40
2018-05-03T11:25:12.675Z,2.80
2018-05-03T11:26:12.623Z,2.90
2018-05-03T11:27:12.523Z,2.80
2018-05-03T11:28:12.428Z,3.00
2018-05-03T11:29:12.344Z,2.90
2018-05-03T11:30:12.354Z,3.10
2018-05-03T11:31:12.216Z,3.10
2018-05-03T11:32:12.236Z,3.00
2018-05-03T11:33:12.093Z,2.90
2018-05-03T11:34:12.069Z,3.20
2018-05-03T11:35:11.946Z,3.30
2018-05-03T11:36:12.992Z,3.30
2018-05-03T11:37:11.787Z,3.30
2018-05-03T11:38:11.768Z,3.00
2018-05-03T11:39:11.868Z,3.20
2018-05-03T11:40:11.692Z,2.90
2018-05-03T11:41:11.529Z,3.00
2018-05-03T11:42:11.489Z,3.70
2018-05-03T11:43:11.480Z,3.50
2018-05-03T11:45:53.530Z,3.50
2018-05-03T11:46:53.503Z,3.60
2018-05-03T11:47:53.533Z,4.10
2018-05-03T11:50:35.267Z,3.80
2018-05-03T11:51:35.205Z,3.40
2018-05-03T11:52:35.138Z,3.80
2018-05-03T11:53:35.127Z,3.60
2018-05-03T11:54:34.945Z,3.30
2018-05-03T11:55:34.956Z,3.60
2018-05-03T11:56:34.825Z,3.20
2018-05-03T11:59:16.833Z,3.40
2018-05-03T12:00:16.722Z,3.30
2018-05-03T12:01:16.630Z,3.60
2018-05-03T12:02:16.640Z,3.40
2018-05-03T12:03:16.496Z,3.50
2018-05-03T12:04:16.449Z,3.20
2018-05-03T12:05:16.352Z,3.30
2018-05-03T12:06:16.286Z,3.70
2018-05-03T12:07:16.157Z,4.00
2018-05-03T12:08:16.162Z,3.50
2018-05-03T12:09:16.003Z,3.70
2018-05-03T12:10:15.975Z,3.60
2018-05-03T12:11:15.934Z,3.80
2018-05-03T12:12:15.834Z,3.70
2018-05-03T12:13:15.702Z,4.00
2018-05-03T12:14:15.636Z,3.50
2018-05-03T12:15:15.550Z,4.20
2018-05-03T12:16:15.487Z,3.60
2018-05-03T12:17:15.416Z,3.50
2018-05-03T12:18:15.419Z,3.70
2018-05-03T12:19:15.258Z,3.20
2018-05-03T12:21:57.338Z,3.30
2018-05-03T12:22:57.208Z,3.50
2018-05-03T12:23:57.159Z,3.10
2018-05-03T12:24:59.380Z,3.70
2018-05-03T12:25:56.955Z,3.10
2018-05-03T12:26:56.929Z,3.50
2018-05-03T12:27:56.804Z,3.30
2018-05-03T12:30:42.783Z,3.40
2018-05-03T12:31:42.773Z,3.40
2018-05-03T12:32:42.619Z,3.70
2018-05-03T12:33:42.654Z,3.70
2018-05-03T12:34:42.451Z,3.30
2018-05-03T12:35:42.460Z,3.60
2018-05-03T12:36:42.296Z,3.80
2018-05-03T12:37:42.299Z,3.70
2018-05-03T12:38:42.156Z,3.40
2018-05-03T12:39:43.149Z,4.20
2018-05-03T12:40:42.019Z,3.60
2018-05-03T12:41:42.007Z,3.70
2018-05-03T12:42:41.842Z,3.80
2018-05-03T12:43:41.794Z,4.10
2018-05-03T12:44:41.724Z,3.80
2018-05-03T12:45:41.620Z,3.70
2018-05-03T12:46:41.551Z,3.50
2018-05-03T12:47:42.501Z,3.70
2018-05-03T12:48:41.376Z,3.70
2018-05-03T12:49:41.323Z,3.90
2018-05-03T12:50:41.251Z,4.00
2018-05-03T12:51:41.308Z,3.60
2018-05-03T12:52:41.103Z,4.00
2018-05-03T12:53:41.006Z,3.60
2018-05-03T12:54:40.980Z,3.80
2018-05-03T12:55:41.012Z,3.70
2018-05-03T12:56:40.785Z,3.50
2018-05-03T12:57:40.801Z,3.90
2018-05-03T12:58:40.647Z,3.80
2018-05-03T12:59:40.679Z,3.30
2018-05-03T13:00:40.526Z,3.20
2018-05-03T13:01:40.495Z,3.40
2018-05-03T13:02:40.327Z,3.80
2018-05-03T13:03:41.367Z,3.70
2018-05-03T13:04:40.160Z,3.20
2018-05-03T13:05:40.237Z,3.20
2018-05-03T13:06:40.042Z,3.60
2018-05-03T13:07:40.040Z,3.80
2018-05-03T13:08:39.856Z,3.70
2018-05-03T13:11:21.776Z,3.90
2018-05-03T13:12:21.739Z,3.30
2018-05-03T13:13:21.645Z,3.30
2018-05-03T13:14:21.580Z,3.30
2018-05-03T13:15:21.456Z,3.60
2018-05-03T13:16:21.430Z,4.10
2018-05-03T13:17:21.311Z,4.20
2018-05-03T13:18:21.349Z,3.50
2018-05-03T13:19:21.210Z,4.00
2018-05-03T13:22:03.295Z,3.40
2018-05-03T13:23:03.769Z,3.90
2018-05-03T13:24:03.146Z,3.80
2018-05-03T13:25:03.926Z,3.40
2018-05-03T13:26:02.974Z,3.30
2018-05-03T13:27:02.903Z,3.30
2018-05-03T13:28:02.835Z,3.30
2018-05-03T13:29:03.261Z,3.30
2018-05-03T13:30:02.700Z,3.50
2018-05-03T13:32:44.786Z,3.60
2018-05-03T13:33:44.841Z,3.40
2018-05-03T13:34:44.647Z,3.20
2018-05-03T13:35:44.557Z,3.20
2018-05-03T13:36:44.491Z,2.90
2018-05-03T13:37:44.419Z,3.20
2018-05-03T13:38:44.357Z,3.30
2018-05-03T13:39:44.385Z,3.30
2018-05-03T13:40:44.183Z,3.40
2018-05-03T13:41:44.133Z,3.30
2018-05-03T13:42:44.016Z,3.00
2018-05-03T13:43:44.047Z,3.00
2018-05-03T13:44:44.170Z,3.20
2018-05-03T13:45:43.809Z,3.20
2018-05-03T13:46:44.096Z,3.10
2018-05-03T13:49:25.788Z,3.20
2018-05-03T13:50:26.802Z,2.90
2018-05-03T13:51:25.716Z,3.50
2018-05-03T13:52:25.651Z,3.20
2018-05-03T13:53:25.516Z,3.00
2018-05-03T13:54:25.497Z,3.20
2018-05-03T13:55:25.355Z,3.50
2018-05-03T13:58:07.295Z,3.00
2018-05-03T13:59:07.231Z,3.00
2018-05-03T14:00:07.184Z,2.80
2018-05-03T14:01:07.092Z,2.70
2018-05-03T14:02:06.997Z,2.60
2018-05-03T14:04:49.296Z,2.50
2018-05-03T14:05:49.377Z,2.60
2018-05-03T14:06:49.160Z,3.00
2018-05-03T14:07:49.115Z,2.70
2018-05-03T14:08:48.973Z,2.40
2018-05-03T14:11:31.318Z,2.50
2018-05-03T14:12:31.347Z,2.80
2018-05-03T14:13:31.151Z,3.00
2018-05-03T14:14:31.138Z,2.90
2018-05-03T14:15:31.011Z,2.80
2018-05-03T14:16:30.975Z,2.90
2018-05-03T14:17:30.869Z,2.70
2018-05-03T14:18:30.840Z,2.60
2018-05-03T14:19:30.664Z,2.80
2018-05-03T14:20:30.669Z,2.40
2018-05-03T14:21:30.539Z,2.60
2018-05-03T14:22:30.709Z,2.70
2018-05-03T14:23:30.366Z,2.50
2018-05-03T14:24:30.383Z,2.70
2018-05-03T14:25:30.206Z,3.00
2018-05-03T14:26:30.155Z,3.00
2018-05-03T14:27:30.091Z,3.20
2018-05-03T14:28:30.133Z,3.20
2018-05-03T14:29:29.910Z,2.70
2018-05-03T14:30:29.909Z,3.20
2018-05-03T14:31:29.746Z,3.00
2018-05-03T14:32:29.721Z,2.70
2018-05-03T14:33:29.624Z,3.30
2018-05-03T14:36:11.830Z,3.40
2018-05-03T14:37:11.826Z,2.80
2018-05-03T14:38:11.701Z,2.60
2018-05-03T14:39:12.697Z,2.90
2018-05-03T14:40:11.509Z,2.90
2018-05-03T14:41:11.437Z,2.70
2018-05-03T14:42:11.341Z,2.90
2018-05-03T14:43:11.354Z,2.80
2018-05-03T14:44:11.225Z,2.80
2018-05-03T14:45:11.174Z,3.00
2018-05-03T14:46:11.031Z,2.70
2018-05-03T14:47:11.099Z,2.60
2018-05-03T14:48:10.892Z,2.90
2018-05-03T14:49:10.820Z,2.60
2018-05-03T14:50:10.756Z,3.30
2018-05-03T14:52:52.798Z,3.00
2018-05-03T14:53:52.804Z,3.10
2018-05-03T14:54:52.648Z,3.20
2018-05-03T14:55:52.635Z,3.60
2018-05-03T14:56:52.515Z,3.50
2018-05-03T14:57:52.530Z,3.30
2018-05-03T14:58:52.361Z,3.20
2018-05-03T15:01:34.323Z,2.70
2018-05-03T15:02:34.415Z,2.90
2018-05-03T15:03:34.169Z,3.40
2018-05-03T15:04:34.132Z,3.10
2018-05-03T15:05:34.017Z,3.30
2018-05-03T15:08:16.399Z,3.40
2018-05-03T15:09:16.370Z,3.40
2018-05-03T15:10:16.174Z,3.00
2018-05-03T15:11:16.195Z,3.50
2018-05-03T15:12:15.994Z,3.30
2018-05-03T15:13:15.962Z,3.00
2018-05-03T15:14:15.867Z,3.00
2018-05-03T15:16:57.858Z,3.10
2018-05-03T15:17:57.762Z,3.30
2018-05-03T15:18:57.655Z,2.90
2018-05-03T15:19:59.627Z,3.40
2018-05-03T15:20:57.520Z,3.20
2018-05-03T15:23:39.926Z,3.30
2018-05-03T15:24:40.846Z,3.20